Time;durP1;ratioP1;P1;durP2;ratioP2;P2;SDS_P1;SDS_P2;PMS_P1;PMS_P2;Temp;Humidity;BMP_temperature;BMP_pressure;BME280_temperature;BME280_humidity;BME280_pressure;Samples;Min_cycle;Max_cycle;Signal;HPM_P1;HPM_P2
2022/05/15 00:02:45;;;;;;;20.57;8.97;;;17.10;1.00;;;;;;5075987;28;20210;-81
2022/05/15 00:05:11;;;;;;;19.87;8.97;;;17.10;1.00;;;;;;5077726;28;20157;-80
2022/05/15 00:07:38;;;;;;;16.23;7.80;;;16.90;1.00;;;;;;5079296;28;20199;-80
2022/05/15 00:10:06;;;;;;;20.17;8.43;;;16.90;1.00;;;;;;5079890;28;20293;-79
2022/05/15 00:12:35;;;;;;;15.10;8.37;;;16.90;1.00;;;;;;5083570;28;20160;-78
2022/05/15 00:15:10;;;;;;;14.27;8.30;;;16.90;1.00;;;;;;5096720;28;20157;-79
2022/05/15 00:17:39;;;;;;;20.80;8.33;;;16.90;1.00;;;;;;5093812;28;20168;-79
2022/05/15 00:20:06;;;;;;;16.97;7.97;;;16.90;1.00;;;;;;5085281;28;20187;-81
2022/05/15 00:22:37;;;;;;;20.73;8.70;;;16.90;1.00;;;;;;5078186;28;20638;-79
2022/05/15 00:25:11;;;;;;;14.17;8.70;;;16.90;1.00;;;;;;5079433;28;20160;-83
2022/05/15 00:27:41;;;;;;;18.10;8.90;;;16.90;1.00;;;;;;5076580;28;20172;-83
2022/05/15 00:30:35;;;;;;;13.73;8.57;;;16.90;1.00;;;;;;5078991;28;20168;-79
2022/05/15 00:33:02;;;;;;;16.10;8.93;;;16.90;1.00;;;;;;5081773;28;20660;-85
2022/05/15 00:35:28;;;;;;;21.53;9.30;;;16.90;1.00;;;;;;5077012;28;20176;-88
2022/05/15 00:37:53;;;;;;;23.03;10.07;;;16.80;1.00;;;;;;5084719;28;20173;-78
2022/05/15 00:40:21;;;;;;;17.57;9.07;;;16.90;1.00;;;;;;5089988;28;20173;-79
2022/05/15 00:42:47;;;;;;;16.77;8.47;;;16.80;1.00;;;;;;5082679;28;20208;-81
2022/05/15 00:45:15;;;;;;;20.67;9.60;;;16.80;1.00;;;;;;5074266;28;20197;-80
2022/05/15 00:47:44;;;;;;;17.00;9.00;;;16.80;1.00;;;;;;5073349;28;20179;-81
2022/05/15 00:50:15;;;;;;;16.33;8.50;;;16.70;1.00;;;;;;5074185;28;20168;-79
2022/05/15 00:52:46;;;;;;;16.17;9.03;;;16.60;1.00;;;;;;5073303;28;20247;-84
2022/05/15 00:55:20;;;;;;;15.73;8.77;;;16.60;1.00;;;;;;5072801;28;20184;-84
2022/05/15 00:58:04;;;;;;;20.10;9.40;;;16.60;1.00;;;;;;5075461;28;20180;-79
2022/05/15 01:00:33;;;;;;;17.87;8.83;;;16.60;1.00;;;;;;5079799;28;20207;-80
2022/05/15 01:03:14;;;;;;;22.03;8.93;;;16.60;1.00;;;;;;5080050;28;20576;-85
2022/05/15 01:05:45;;;;;;;21.20;9.30;;;16.60;1.00;;;;;;5076544;28;20538;-83
2022/05/15 01:08:11;;;;;;;14.47;9.20;;;16.70;1.00;;;;;;5076662;28;20172;-85
2022/05/15 01:10:41;;;;;;;20.93;9.03;;;16.60;1.00;;;;;;5079428;28;20164;-80
2022/05/15 01:13:09;;;;;;;19.37;8.60;;;16.60;1.00;;;;;;5078611;28;20178;-80
2022/05/15 01:15:36;;;;;;;18.83;8.63;;;16.50;1.00;;;;;;5077110;28;20191;-86
2022/05/15 01:18:03;;;;;;;16.87;9.30;;;16.50;1.00;;;;;;5077758;28;20172;-86
2022/05/15 01:20:30;;;;;;;15.73;8.57;;;16.50;1.00;;;;;;5078864;28;20704;-85
2022/05/15 01:22:58;;;;;;;19.83;8.97;;;16.50;1.00;;;;;;5076890;28;20219;-83
2022/05/15 01:25:28;;;;;;;16.77;8.50;;;16.50;1.00;;;;;;5077440;28;20222;-80
2022/05/15 01:28:00;;;;;;;19.20;8.43;;;16.50;1.00;;;;;;5077039;28;20171;-79
2022/05/15 01:30:27;;;;;;;22.50;8.83;;;16.50;1.00;;;;;;5076297;28;20712;-82
2022/05/15 01:32:53;;;;;;;17.60;8.63;;;16.40;1.00;;;;;;5077212;28;20174;-86
2022/05/15 01:35:19;;;;;;;21.20;9.20;;;16.40;1.00;;;;;;5078779;28;20182;-86
2022/05/15 01:37:45;;;;;;;18.57;8.97;;;16.30;1.00;;;;;;5076752;28;20183;-87
2022/05/15 01:40:11;;;;;;;18.67;8.43;;;16.30;1.00;;;;;;5077870;28;20511;-79
2022/05/15 01:42:37;;;;;;;17.60;9.10;;;16.30;1.00;;;;;;5076681;28;20196;-81
2022/05/15 01:45:05;;;;;;;17.23;9.37;;;16.30;1.00;;;;;;5076872;28;20669;-83
2022/05/15 01:47:32;;;;;;;17.23;8.77;;;16.30;1.00;;;;;;5076758;28;20214;-81
2022/05/15 01:49:58;;;;;;;15.30;8.67;;;16.20;1.00;;;;;;5077295;28;20191;-87
2022/05/15 01:52:30;;;;;;;19.97;9.80;;;16.20;1.00;;;;;;5081052;28;20175;-87
2022/05/15 01:54:55;;;;;;;20.37;9.47;;;16.10;1.00;;;;;;5079364;28;20172;-82
2022/05/15 01:57:24;;;;;;;18.13;9.97;;;16.10;1.00;;;;;;5079303;28;20206;-81
2022/05/15 01:59:51;;;;;;;18.80;9.97;;;16.10;1.00;;;;;;5077211;28;20180;-81
2022/05/15 02:02:17;;;;;;;18.50;9.53;;;16.10;1.00;;;;;;5077774;28;20212;-79
2022/05/15 02:04:43;;;;;;;19.10;10.00;;;16.10;1.00;;;;;;5080897;28;20180;-85
2022/05/15 02:07:08;;;;;;;21.73;10.73;;;16.10;1.00;;;;;;5078601;28;20199;-80
2022/05/15 02:09:34;;;;;;;18.90;9.70;;;16.10;1.00;;;;;;5083899;28;20584;-84
2022/05/15 02:12:01;;;;;;;18.03;9.07;;;16.20;1.00;;;;;;5083842;28;20183;-82
2022/05/15 02:14:26;;;;;;;21.20;9.17;;;16.10;1.00;;;;;;5077947;28;20274;-81
2022/05/15 02:16:54;;;;;;;21.30;9.80;;;16.20;1.00;;;;;;5077684;28;20177;-87
2022/05/15 02:19:21;;;;;;;19.77;10.03;;;16.10;1.00;;;;;;5076220;28;20204;-85
2022/05/15 02:21:47;;;;;;;16.77;8.87;;;16.20;1.00;;;;;;5077048;28;20168;-85
2022/05/15 02:24:15;;;;;;;16.73;9.67;;;16.10;1.00;;;;;;5075800;28;20168;-80
2022/05/15 02:26:41;;;;;;;19.83;10.23;;;16.20;1.00;;;;;;5077293;28;20247;-82
2022/05/15 02:29:08;;;;;;;14.43;9.33;;;16.10;1.00;;;;;;5084034;28;20581;-84
2022/05/15 02:31:34;;;;;;;17.73;9.40;;;16.10;1.00;;;;;;5081175;28;20183;-79
2022/05/15 02:34:00;;;;;;;17.23;10.17;;;16.10;1.00;;;;;;5081124;28;20180;-80
2022/05/15 02:36:27;;;;;;;19.37;9.80;;;16.10;1.00;;;;;;5082939;28;20175;-80
2022/05/15 02:38:59;;;;;;;20.03;10.13;;;16.00;1.00;;;;;;5077547;28;20176;-85
2022/05/15 02:41:26;;;;;;;19.83;9.77;;;16.00;1.00;;;;;;5078104;28;20164;-88
2022/05/15 02:43:52;;;;;;;17.10;9.80;;;16.00;1.00;;;;;;5077444;28;20596;-86
2022/05/15 02:46:17;;;;;;;20.50;10.30;;;16.00;1.00;;;;;;5075731;28;20253;-81
2022/05/15 02:51:27;;;;;;;20.17;9.63;;;15.90;1.00;;;;;;5075956;28;20237;-81
2022/05/15 02:53:53;;;;;;;22.17;9.83;;;16.00;1.00;;;;;;5075357;28;20168;-85
2022/05/15 02:56:22;;;;;;;17.90;10.00;;;16.00;1.00;;;;;;5075683;28;20636;-80
2022/05/15 02:58:48;;;;;;;22.53;10.27;;;16.00;1.00;;;;;;5076130;28;20161;-81
2022/05/15 03:01:15;;;;;;;19.87;9.73;;;16.00;1.00;;;;;;5075147;28;20276;-80
2022/05/15 03:03:41;;;;;;;17.27;9.83;;;15.90;1.00;;;;;;5075317;28;20211;-82
2022/05/15 03:06:08;;;;;;;17.63;10.17;;;15.80;1.00;;;;;;5075199;28;20172;-80
2022/05/15 03:08:37;;;;;;;21.00;10.20;;;15.80;1.00;;;;;;5074143;28;20182;-81
2022/05/15 03:11:03;;;;;;;15.70;9.13;;;15.80;1.00;;;;;;5075077;28;20172;-83
2022/05/15 03:13:29;;;;;;;18.70;9.73;;;15.80;1.00;;;;;;5074716;28;20172;-82
2022/05/15 03:15:54;;;;;;;18.07;9.93;;;15.80;1.00;;;;;;5073981;28;20303;-88
2022/05/15 03:18:21;;;;;;;20.57;10.80;;;15.80;1.00;;;;;;5076077;28;20172;-86
2022/05/15 03:20:46;;;;;;;18.60;10.23;;;15.60;1.00;;;;;;5073848;28;20176;-81
2022/05/15 03:23:13;;;;;;;19.70;10.13;;;15.60;1.00;;;;;;5073404;28;20226;-81
2022/05/15 03:25:39;;;;;;;20.97;9.73;;;15.50;4.80;;;;;;5074206;28;20164;-87
2022/05/15 03:28:09;;;;;;;20.03;10.60;;;15.50;8.40;;;;;;5077102;28;20304;-84
2022/05/15 03:30:39;;;;;;;18.07;9.70;;;15.40;7.10;;;;;;5076167;28;20315;-86
2022/05/15 03:33:05;;;;;;;18.23;10.50;;;15.50;8.40;;;;;;5074246;28;20237;-88
2022/05/15 03:35:32;;;;;;;20.17;10.90;;;15.50;5.40;;;;;;5075313;28;20188;-81
2022/05/15 03:37:58;;;;;;;18.60;10.57;;;15.50;4.90;;;;;;5073859;28;20179;-80
2022/05/15 03:40:24;;;;;;;18.93;11.27;;;15.50;1.40;;;;;;5075795;28;20176;-84
2022/05/15 03:42:49;;;;;;;19.17;10.40;;;15.50;1.50;;;;;;5076478;28;20595;-82
2022/05/15 03:45:15;;;;;;;18.73;10.73;;;15.60;2.90;;;;;;5092773;28;20182;-80
2022/05/15 03:47:51;;;;;;;19.27;10.60;;;15.50;1.90;;;;;;5093100;28;20225;-82
2022/05/15 03:50:20;;;;;;;17.73;10.63;;;15.40;5.90;;;;;;5082880;28;20642;-83
2022/05/15 03:52:47;;;;;;;17.43;10.40;;;15.50;4.00;;;;;;5082997;28;20233;-87
2022/05/15 03:55:16;;;;;;;16.43;10.30;;;15.30;4.40;;;;;;5077013;28;20201;-87
2022/05/15 03:57:45;;;;;;;17.80;10.90;;;15.30;8.30;;;;;;5077607;28;20192;-87
2022/05/15 04:00:15;;;;;;;19.73;9.87;;;15.30;6.90;;;;;;5075857;28;20176;-82
2022/05/15 04:02:42;;;;;;;21.80;10.77;;;15.40;5.70;;;;;;5074998;28;20214;-80
2022/05/15 04:05:09;;;;;;;21.40;10.90;;;15.30;6.40;;;;;;5078208;28;20186;-80
2022/05/15 04:07:42;;;;;;;20.10;10.77;;;15.30;8.60;;;;;;5083508;28;20167;-78
2022/05/15 04:10:09;;;;;;;15.20;10.57;;;15.20;9.20;;;;;;5089855;28;20163;-77
2022/05/15 04:12:35;;;;;;;21.30;11.17;;;15.20;7.90;;;;;;5090205;28;20176;-79
2022/05/15 04:15:00;;;;;;;17.67;11.10;;;15.20;8.30;;;;;;5088815;28;20164;-79
2022/05/15 04:17:29;;;;;;;18.90;11.73;;;15.20;9.30;;;;;;5090781;28;20514;-84
2022/05/15 04:20:10;;;;;;;19.73;11.37;;;15.30;9.20;;;;;;5091370;28;20157;-80
2022/05/15 04:22:38;;;;;;;19.13;11.47;;;15.20;9.10;;;;;;5086966;28;20216;-79
2022/05/15 04:25:04;;;;;;;20.60;10.33;;;15.20;9.10;;;;;;5085033;28;20153;-79
2022/05/15 04:27:31;;;;;;;20.83;11.10;;;15.20;11.20;;;;;;5086573;28;20199;-83
2022/05/15 04:29:57;;;;;;;15.90;10.37;;;15.30;9.70;;;;;;5084326;28;20180;-78
2022/05/15 04:32:22;;;;;;;16.70;10.03;;;15.30;7.20;;;;;;5085295;28;20241;-80
2022/05/15 04:34:50;;;;;;;19.73;11.07;;;15.50;3.80;;;;;;5080911;28;20192;-84
2022/05/15 04:37:16;;;;;;;18.93;10.57;;;15.40;2.00;;;;;;5079855;28;20251;-84
2022/05/15 04:39:42;;;;;;;17.77;11.07;;;15.50;1.00;;;;;;5079270;28;20192;-82
2022/05/15 04:42:08;;;;;;;16.13;10.70;;;15.60;1.00;;;;;;5076600;28;20191;-83
2022/05/15 04:44:34;;;;;;;16.63;10.40;;;15.60;1.00;;;;;;5078400;28;20168;-86
2022/05/15 04:47:03;;;;;;;17.13;10.53;;;15.70;1.00;;;;;;5076859;28;20168;-82
2022/05/15 04:49:32;;;;;;;18.20;10.83;;;15.70;1.00;;;;;;5078224;28;20176;-86
2022/05/15 04:51:58;;;;;;;17.53;10.30;;;15.80;1.00;;;;;;5089201;28;20172;-80
2022/05/15 04:54:27;;;;;;;18.67;10.57;;;16.10;1.00;;;;;;5092746;28;20161;-80
2022/05/15 04:56:53;;;;;;;19.20;11.30;;;15.90;1.00;;;;;;5079209;28;20183;-80
2022/05/15 04:59:22;;;;;;;17.27;10.53;;;15.90;1.00;;;;;;5079302;28;20260;-81
2022/05/15 05:01:49;;;;;;;18.07;11.10;;;15.90;1.00;;;;;;5078465;28;20148;-79
2022/05/15 05:04:15;;;;;;;14.80;10.60;;;15.90;1.00;;;;;;5074259;28;20184;-86
2022/05/15 05:06:42;;;;;;;16.37;10.90;;;15.90;1.00;;;;;;5073436;28;20165;-84
2022/05/15 05:09:09;;;;;;;16.70;10.40;;;15.90;1.00;;;;;;5074796;28;20165;-85
2022/05/15 05:11:34;;;;;;;18.23;10.70;;;16.00;1.00;;;;;;5073692;28;20217;-85
2022/05/15 05:14:00;;;;;;;17.77;10.03;;;16.10;1.00;;;;;;5080569;28;20165;-86
2022/05/15 05:16:26;;;;;;;16.33;10.50;;;16.10;1.00;;;;;;5084478;28;20160;-80
2022/05/15 05:18:51;;;;;;;14.83;10.20;;;16.20;1.00;;;;;;5085072;28;20194;-81
2022/05/15 05:21:17;;;;;;;17.03;10.33;;;16.20;1.00;;;;;;5080991;28;20637;-81
2022/05/15 05:23:43;;;;;;;16.60;10.47;;;16.00;1.00;;;;;;5080034;28;20678;-86
2022/05/15 05:26:08;;;;;;;18.00;10.53;;;16.20;1.00;;;;;;5079803;28;20282;-83
2022/05/15 05:28:34;;;;;;;16.77;9.97;;;16.30;1.00;;;;;;5091823;28;20169;-86
2022/05/15 05:31:01;;;;;;;17.37;10.63;;;16.50;1.00;;;;;;5088922;28;20196;-85
2022/05/15 05:33:27;;;;;;;13.80;9.90;;;16.50;1.00;;;;;;5087824;28;20262;-82
2022/05/15 05:35:53;;;;;;;18.17;10.60;;;16.50;1.00;;;;;;5086819;28;20168;-86
2022/05/15 05:38:19;;;;;;;18.67;10.73;;;16.50;1.00;;;;;;5079373;28;20169;-85
2022/05/15 05:40:45;;;;;;;14.13;9.37;;;16.60;1.00;;;;;;5077325;28;20161;-81
2022/05/15 05:43:11;;;;;;;20.73;10.63;;;16.60;1.00;;;;;;5076511;28;20211;-85
2022/05/15 05:45:38;;;;;;;14.03;9.43;;;16.70;1.00;;;;;;5093030;28;20191;-83
2022/05/15 05:48:05;;;;;;;13.53;9.53;;;16.80;1.00;;;;;;5095375;28;20181;-84
2022/05/15 05:50:30;;;;;;;15.30;8.93;;;16.90;1.00;;;;;;5098682;28;20172;-81
2022/05/15 05:52:57;;;;;;;13.70;8.33;;;17.10;1.00;;;;;;5097863;28;20174;-78
2022/05/15 05:55:27;;;;;;;16.00;9.00;;;17.10;1.00;;;;;;5085901;28;20173;-84
2022/05/15 05:57:55;;;;;;;11.43;8.53;;;17.10;1.00;;;;;;5085795;28;20184;-81
2022/05/15 06:00:29;;;;;;;14.30;8.37;;;17.10;1.00;;;;;;5081011;28;20226;-85
2022/05/15 06:05:39;;;;;;;14.50;8.50;;;17.20;1.00;;;;;;5077375;28;20635;-85
2022/05/15 06:08:05;;;;;;;15.63;9.17;;;17.20;1.00;;;;;;5077388;28;20153;-86
2022/05/15 06:10:31;;;;;;;11.90;7.40;;;17.10;1.00;;;;;;5076596;28;20195;-84
2022/05/15 06:12:56;;;;;;;13.73;8.80;;;17.20;1.00;;;;;;5076480;28;20176;-85
2022/05/15 06:15:22;;;;;;;13.20;8.17;;;17.30;1.00;;;;;;5077547;28;20164;-83
2022/05/15 06:17:47;;;;;;;14.00;7.50;;;17.30;1.00;;;;;;5076082;28;20632;-80
2022/05/15 06:20:13;;;;;;;15.43;7.80;;;17.40;1.00;;;;;;5076646;28;20532;-80
2022/05/15 06:22:39;;;;;;;15.83;7.73;;;17.50;1.00;;;;;;5076419;28;20197;-87
2022/05/15 06:25:06;;;;;;;12.47;8.37;;;17.50;1.00;;;;;;5075484;28;20183;-85
2022/05/15 06:27:32;;;;;;;13.80;7.40;;;17.60;1.00;;;;;;5076426;28;20195;-80
2022/05/15 06:29:58;;;;;;;16.43;7.93;;;17.70;1.00;;;;;;5076217;28;20628;-80
2022/05/15 06:32:26;;;;;;;12.00;7.47;;;17.70;1.00;;;;;;5075935;28;20200;-87
2022/05/15 06:34:52;;;;;;;13.07;7.80;;;17.80;1.00;;;;;;5075234;28;20664;-83
2022/05/15 06:37:17;;;;;;;12.67;7.50;;;17.80;1.00;;;;;;5078568;28;20168;-85
2022/05/15 06:39:43;;;;;;;10.07;7.23;;;17.90;1.00;;;;;;5079132;28;20389;-86
2022/05/15 06:42:09;;;;;;;11.50;7.80;;;18.00;1.00;;;;;;5076509;28;20220;-85
2022/05/15 06:44:35;;;;;;;16.00;7.50;;;18.00;1.00;;;;;;5076012;28;20240;-82
2022/05/15 06:47:00;;;;;;;11.80;6.93;;;18.10;1.00;;;;;;5076675;28;20166;-82
2022/05/15 06:49:26;;;;;;;11.10;7.07;;;18.00;1.00;;;;;;5077979;28;20180;-87
2022/05/15 06:51:52;;;;;;;16.30;7.93;;;18.30;1.00;;;;;;5076616;28;20169;-86
2022/05/15 06:54:18;;;;;;;12.43;7.37;;;18.40;1.00;;;;;;5078295;28;20178;-86
2022/05/15 06:59:28;;;;;;;13.20;6.40;;;18.70;1.00;;;;;;5077938;28;20179;-86
2022/05/15 07:01:54;;;;;;;10.80;7.03;;;18.90;1.00;;;;;;5075821;28;20627;-87
2022/05/15 07:04:19;;;;;;;9.87;6.90;;;18.90;1.00;;;;;;5076490;28;20188;-85
2022/05/15 07:06:45;;;;;;;13.93;7.23;;;18.90;99.90;;;;;;5076256;28;20268;-81
2022/05/15 07:09:11;;;;;;;9.87;7.20;;;18.90;1.00;;;;;;5077799;28;20196;-85
2022/05/15 07:11:37;;;;;;;14.20;7.87;;;18.90;99.90;;;;;;5075303;28;20199;-81
2022/05/15 07:14:03;;;;;;;13.17;6.57;;;19.00;99.90;;;;;;5084297;28;20166;-81
2022/05/15 07:16:29;;;;;;;12.93;6.73;;;19.00;99.90;;;;;;5097296;28;20175;-79
2022/05/15 07:18:55;;;;;;;14.53;6.73;;;19.10;99.90;;;;;;5082375;28;20180;-85
2022/05/15 07:21:20;;;;;;;9.27;6.43;;;19.10;99.90;;;;;;5082986;28;20177;-80
2022/05/15 07:24:13;;;;;;;14.23;6.37;;;19.20;99.90;;;;;;5091144;28;20188;-80
2022/05/15 07:26:48;;;;;;;11.90;5.93;;;19.40;99.90;;;;;;5090574;28;20152;-83
2022/05/15 07:29:20;;;;;;;11.90;5.60;;;19.50;15.70;;;;;;5078274;28;20172;-87
2022/05/15 07:31:58;;;;;;;11.53;5.60;;;19.60;1.00;;;;;;5078919;28;20201;-86
2022/05/15 07:34:24;;;;;;;14.40;5.43;;;19.60;1.00;;;;;;5077163;28;20250;-85
2022/05/15 07:36:52;;;;;;;9.40;6.10;;;19.70;12.70;;;;;;5077736;28;20170;-88
2022/05/15 07:39:20;;;;;;;11.00;6.10;;;19.70;1.00;;;;;;5096114;28;20185;-83
2022/05/15 07:41:47;;;;;;;13.30;6.43;;;19.70;62.90;;;;;;5096666;28;20177;-83
2022/05/15 07:44:13;;;;;;;10.13;5.77;;;19.80;1.00;;;;;;5085210;28;20198;-82
2022/05/15 07:46:40;;;;;;;12.07;6.00;;;20.00;1.00;;;;;;5084827;28;20178;-82
2022/05/15 07:49:13;;;;;;;13.30;5.97;;;20.10;99.90;;;;;;5080981;28;20165;-86
2022/05/15 07:51:46;;;;;;;12.87;6.13;;;20.20;1.00;;;;;;5076538;28;20146;-84
2022/05/15 07:54:13;;;;;;;10.07;5.13;;;20.20;1.00;;;;;;5074662;28;20230;-81
2022/05/15 07:56:41;;;;;;;10.63;5.43;;;20.10;47.10;;;;;;5074797;28;20240;-83
2022/05/15 07:59:08;;;;;;;10.97;5.20;;;20.10;1.00;;;;;;5075684;28;20181;-82
2022/05/15 08:01:34;;;;;;;9.70;5.13;;;20.20;1.00;;;;;;5075922;28;20197;-88
2022/05/15 08:04:00;;;;;;;10.20;5.10;;;20.20;99.90;;;;;;5074637;28;20673;-81
2022/05/15 08:09:10;;;;;;;12.10;5.90;;;20.50;1.00;;;;;;5079054;28;20173;-86
2022/05/15 08:11:36;;;;;;;9.23;5.20;;;20.70;1.00;;;;;;5075116;28;20179;-81
2022/05/15 08:14:04;;;;;;;14.70;5.73;;;20.80;52.20;;;;;;5075164;28;20187;-85
2022/05/15 08:16:35;;;;;;;10.47;4.93;;;20.90;1.00;;;;;;5079031;28;20171;-83
2022/05/15 08:24:29;;;;;;;10.50;4.93;;;21.10;76.40;;;;;;5076662;28;20182;-85
2022/05/15 08:26:56;;;;;;;8.27;4.53;;;21.20;1.00;;;;;;5075673;28;20172;-82
2022/05/15 08:29:23;;;;;;;12.47;4.70;;;21.20;1.00;;;;;;5073436;28;20167;-81
2022/05/15 08:31:48;;;;;;;12.20;4.73;;;21.20;99.90;;;;;;5074185;28;20195;-82
2022/05/15 08:34:14;;;;;;;9.30;3.80;;;21.30;99.90;;;;;;5074127;28;20539;-82
2022/05/15 08:36:42;;;;;;;10.00;4.50;;;21.40;1.00;;;;;;5074296;28;20177;-86
2022/05/15 08:39:17;;;;;;;7.17;4.07;;;21.40;1.00;;;;;;5075021;28;20168;-81
2022/05/15 08:41:42;;;;;;;10.60;4.20;;;21.60;99.90;;;;;;5074190;28;20248;-80
2022/05/15 08:44:14;;;;;;;13.33;5.10;;;21.90;99.90;;;;;;5073774;28;20208;-86
2022/05/15 08:46:49;;;;;;;10.47;4.03;;;22.10;99.90;;;;;;5072992;28;20173;-85
2022/05/15 08:49:31;;;;;;;8.53;3.90;;;22.20;1.00;;;;;;5075862;28;20233;-83
2022/05/15 08:52:35;;;;;;;8.90;4.30;;;22.10;1.00;;;;;;5079386;28;20169;-83
2022/05/15 08:55:19;;;;;;;8.80;3.70;;;22.00;1.00;;;;;;5078027;28;20208;-82
2022/05/15 08:57:50;;;;;;;9.33;3.67;;;21.90;99.90;;;;;;5077852;28;20199;-83
2022/05/15 09:00:23;;;;;;;10.30;4.03;;;21.90;99.90;;;;;;5076793;28;20195;-85
2022/05/15 09:02:49;;;;;;;9.33;3.43;;;22.00;1.00;;;;;;5074433;28;20196;-83
2022/05/15 09:05:16;;;;;;;9.83;3.77;;;22.10;1.00;;;;;;5073177;28;20183;-85
2022/05/15 09:07:57;;;;;;;12.40;4.40;;;22.20;99.90;;;;;;5074555;28;20199;-81
2022/05/15 09:10:36;;;;;;;7.40;3.10;;;22.30;1.00;;;;;;5073977;28;20192;-85
2022/05/15 09:13:30;;;;;;;6.40;3.20;;;22.40;1.00;;;;;;5073026;28;20192;-82
2022/05/15 09:16:02;;;;;;;10.50;3.20;;;22.70;1.00;;;;;;5074072;28;20182;-85
2022/05/15 09:18:28;;;;;;;8.27;3.30;;;22.90;1.00;;;;;;5073637;28;20204;-86
2022/05/15 09:20:57;;;;;;;10.93;3.33;;;23.20;99.90;;;;;;5076569;28;20170;-82
2022/05/15 09:23:45;;;;;;;6.07;3.30;;;23.20;99.90;;;;;;5077107;28;20209;-81
2022/05/15 09:26:11;;;;;;;11.13;3.47;;;23.20;71.90;;;;;;5058064;28;20194;-86
2022/05/15 09:28:51;;;;;;;7.10;2.83;;;23.20;99.90;;;;;;5056832;28;20183;-83
2022/05/15 09:31:44;;;;;;;7.53;3.43;;;23.20;1.00;;;;;;5057883;28;20226;-84
2022/05/15 09:34:36;;;;;;;8.63;3.33;;;23.30;1.00;;;;;;5057999;28;20201;-86
2022/05/15 09:39:52;;;;;;;10.87;3.30;;;23.60;1.00;;;;;;5059982;28;20194;-83
2022/05/15 09:45:55;;;;;;;7.17;2.80;;;23.80;1.00;;;;;;5063311;28;20183;-83
2022/05/15 09:48:42;;;;;;;6.77;2.97;;;23.90;99.90;;;;;;5054568;28;20187;-82
2022/05/15 09:51:12;;;;;;;9.07;3.13;;;23.90;1.00;;;;;;5070569;28;20219;-80
2022/05/15 09:53:50;;;;;;;6.47;3.00;;;23.90;1.00;;;;;;5077970;28;20172;-81
2022/05/15 09:56:19;;;;;;;6.97;2.67;;;24.20;1.00;;;;;;5077275;28;20176;-80
2022/05/15 09:58:52;;;;;;;5.90;2.37;;;24.50;99.90;;;;;;5076625;28;20264;-80
2022/05/15 10:01:36;;;;;;;4.87;2.80;;;24.80;99.90;;;;;;5069909;28;20542;-81
2022/05/15 10:04:05;;;;;;;9.40;2.87;;;24.60;99.90;;;;;;5067232;28;20216;-80
2022/05/15 10:06:53;;;;;;;6.63;2.37;;;24.90;99.90;;;;;;5071337;28;20184;-83
2022/05/15 10:09:35;;;;;;;7.30;2.87;;;24.80;99.90;;;;;;5059417;28;20531;-80
2022/05/15 10:12:10;;;;;;;8.23;3.03;;;24.80;99.90;;;;;;5065095;28;20153;-83
2022/05/15 10:15:06;;;;;;;5.00;2.87;;;24.80;99.90;;;;;;5061017;28;20165;-85
2022/05/15 10:17:33;;;;;;;6.73;2.83;;;24.60;99.90;;;;;;5060322;28;20165;-84
2022/05/15 10:20:15;;;;;;;4.97;2.40;;;24.60;99.90;;;;;;5059473;28;20207;-86
2022/05/15 10:22:59;;;;;;;6.00;2.27;;;24.50;99.90;;;;;;5057966;28;20200;-80
2022/05/15 10:25:42;;;;;;;39.87;5.63;;;24.50;99.90;;;;;;5060402;28;20200;-82
2022/05/15 10:28:27;;;;;;;7.60;2.10;;;24.70;99.90;;;;;;5061226;28;20184;-80
2022/05/15 10:31:04;;;;;;;10.03;2.20;;;24.70;99.90;;;;;;5066062;28;20216;-85
2022/05/15 10:33:41;;;;;;;5.57;2.30;;;24.90;99.90;;;;;;5059451;28;20200;-81
2022/05/15 10:36:44;;;;;;;5.73;2.17;;;24.90;93.50;;;;;;5064516;28;20255;-80
2022/05/15 10:39:30;;;;;;;8.03;2.90;;;24.80;99.90;;;;;;5067155;28;20165;-87
2022/05/15 10:42:22;;;;;;;9.80;2.90;;;24.90;99.90;;;;;;5068078;28;20153;-84
2022/05/15 10:45:17;;;;;;;7.57;2.57;;;25.10;99.90;;;;;;5083138;28;20176;-80
2022/05/15 10:48:15;;;;;;;5.10;2.07;;;25.40;91.90;;;;;;5083596;28;20173;-82
2022/05/15 10:57:41;;;;;;;8.30;2.37;;;26.00;35.80;;;;;;5072400;28;20618;-83
2022/05/15 11:00:13;;;;;;;5.60;2.30;;;26.10;29.60;;;;;;5079316;28;20247;-87
2022/05/15 11:03:04;;;;;;;11.70;3.03;;;26.00;10.80;;;;;;5077239;28;20203;-81
2022/05/15 11:05:53;;;;;;;8.73;2.87;;;25.70;41.00;;;;;;5081985;28;20160;-81
2022/05/15 11:08:52;;;;;;;6.17;2.43;;;25.60;98.30;;;;;;5078166;28;20180;-81
2022/05/15 11:11:33;;;;;;;6.03;2.10;;;25.50;99.90;;;;;;5068611;28;20176;-82
2022/05/15 11:14:22;;;;;;;4.10;2.20;;;25.40;99.90;;;;;;5063648;28;20195;-82
2022/05/15 11:17:13;;;;;;;10.13;2.80;;;25.80;76.60;;;;;;5060615;28;20178;-85
2022/05/15 11:19:47;;;;;;;6.83;2.50;;;25.80;25.00;;;;;;5058730;28;20200;-83
2022/05/15 11:22:27;;;;;;;8.13;2.60;;;25.80;62.70;;;;;;5056692;28;20204;-83
2022/05/15 11:25:07;;;;;;;9.83;2.60;;;26.10;28.10;;;;;;5055578;28;20278;-86
2022/05/15 11:27:51;;;;;;;9.53;2.70;;;26.30;42.80;;;;;;5060737;28;20173;-87
2022/05/15 11:30:22;;;;;;;6.43;2.23;;;26.60;15.80;;;;;;5058345;28;20172;-88
2022/05/15 11:32:54;;;;;;;10.97;3.03;;;26.80;1.00;;;;;;5058036;28;20189;-89
2022/05/15 11:35:22;;;;;;;7.13;2.90;;;26.50;1.00;;;;;;5059396;28;20189;-89
2022/05/15 11:38:03;;;;;;;7.20;2.80;;;26.60;27.40;;;;;;5061097;28;20169;-82
2022/05/15 11:40:45;;;;;;;6.20;2.80;;;26.70;74.00;;;;;;5056882;28;20161;-89
2022/05/15 11:43:26;;;;;;;9.97;3.53;;;26.70;17.70;;;;;;5057741;28;20201;-85
2022/05/15 11:46:09;;;;;;;6.63;2.50;;;26.10;78.50;;;;;;5057417;28;20171;-81
2022/05/15 11:48:39;;;;;;;12.00;3.13;;;25.70;99.90;;;;;;5061479;28;20204;-84
2022/05/15 11:51:14;;;;;;;6.43;3.10;;;25.80;99.90;;;;;;5064388;28;20199;-82
2022/05/15 11:54:27;;;;;;;7.50;3.03;;;25.80;99.90;;;;;;5062159;28;20191;-82
2022/05/15 11:57:01;;;;;;;5.60;2.83;;;26.00;99.90;;;;;;5059185;28;20242;-83
2022/05/15 11:59:33;;;;;;;7.30;3.00;;;26.00;99.90;;;;;;5062278;28;20168;-81
2022/05/15 12:02:21;;;;;;;7.10;3.07;;;25.80;99.90;;;;;;5062568;28;20156;-84
2022/05/15 12:04:48;;;;;;;3.77;2.53;;;25.90;99.90;;;;;;5060696;28;20263;-84
2022/05/15 12:07:16;;;;;;;4.97;2.73;;;25.90;99.90;;;;;;5064666;28;20169;-81
2022/05/15 12:09:44;;;;;;;5.37;2.80;;;25.80;99.90;;;;;;5069488;28;20167;-81
2022/05/15 12:12:27;;;;;;;7.10;3.10;;;26.10;99.90;;;;;;5071055;28;20153;-82
2022/05/15 12:15:05;;;;;;;4.67;2.20;;;26.40;99.90;;;;;;5066955;28;20267;-87
2022/05/15 12:17:38;;;;;;;9.43;2.40;;;26.10;99.90;;;;;;5061813;28;20161;-80
2022/05/15 12:20:28;;;;;;;5.37;2.80;;;26.00;99.90;;;;;;5060757;28;20270;-88
2022/05/15 12:23:13;;;;;;;7.50;2.83;;;26.10;99.90;;;;;;5060436;28;20196;-86
2022/05/15 12:26:15;;;;;;;11.17;3.37;;;26.30;99.90;;;;;;5058131;28;20254;-90
2022/05/15 12:29:02;;;;;;;8.57;2.90;;;26.30;88.60;;;;;;5060512;28;20182;-90
2022/05/15 12:31:38;;;;;;;8.23;3.60;;;26.00;99.90;;;;;;5059544;28;20192;-87
2022/05/15 12:34:22;;;;;;;24.83;4.20;;;25.90;99.90;;;;;;5064529;28;20177;-88
2022/05/15 12:37:21;;;;;;;5.07;2.60;;;26.10;99.90;;;;;;5060883;28;20247;-82
2022/05/15 12:39:51;;;;;;;3.57;2.50;;;26.20;99.90;;;;;;5061547;28;20192;-89
2022/05/15 12:42:40;;;;;;;6.33;2.80;;;26.10;98.90;;;;;;5060834;28;20302;-85
2022/05/15 12:45:11;;;;;;;7.23;2.87;;;25.90;99.00;;;;;;5061370;28;20274;-89
2022/05/15 12:47:39;;;;;;;5.47;2.37;;;26.10;99.60;;;;;;5059730;28;20190;-81
2022/05/15 12:50:16;;;;;;;35.20;5.97;;;26.40;61.80;;;;;;5064346;28;20188;-89
2022/05/15 12:52:42;;;;;;;7.33;2.90;;;26.80;29.20;;;;;;5065718;28;20165;-85
2022/05/15 12:55:29;;;;;;;8.70;3.17;;;26.80;16.20;;;;;;5066649;28;20161;-83
2022/05/15 12:58:05;;;;;;;6.40;2.70;;;26.90;16.00;;;;;;5072308;28;20328;-82
2022/05/15 13:00:39;;;;;;;6.33;2.40;;;27.20;1.00;;;;;;5053010;28;20232;-89
2022/05/15 13:03:08;;;;;;;6.05;2.67;;;27.40;1.00;;;;;;5070911;28;20220;-82
2022/05/15 13:05:57;;;;;;;12.07;6.90;;;27.70;1.00;;;;;;5069780;28;20258;-82
2022/05/15 13:08:23;;;;;;;7.38;3.03;;;27.90;1.00;;;;;;5062854;28;20164;-87
2022/05/15 13:11:02;;;;;;;5.47;2.55;;;27.90;1.00;;;;;;5062893;28;20660;-84
2022/05/15 13:13:35;;;;;;;6.32;2.42;;;27.80;1.00;;;;;;5062794;28;20245;-90
2022/05/15 13:16:05;;;;;;;7.10;2.60;;;27.60;1.00;;;;;;5063320;28;20207;-87
2022/05/15 13:18:36;;;;;;;7.05;2.53;;;27.50;1.00;;;;;;5065306;28;20258;-82
2022/05/15 13:21:06;;;;;;;6.90;2.60;;;27.50;1.00;;;;;;5071133;28;20180;-83
2022/05/15 13:23:37;;;;;;;5.85;3.03;;;27.80;1.00;;;;;;5065166;28;20212;-89
2022/05/15 13:26:06;;;;;;;7.30;2.80;;;28.10;1.00;;;;;;5063986;28;20165;-91
2022/05/15 13:28:32;;;;;;;9.85;2.65;;;28.00;1.00;;;;;;5069789;28;20169;-82
2022/05/15 13:31:01;;;;;;;12.02;2.72;;;28.30;1.00;;;;;;5070325;28;20189;-82
2022/05/15 13:33:29;;;;;;;5.10;2.28;;;28.20;1.00;;;;;;5066815;28;20543;-88
2022/05/15 13:36:20;;;;;;;11.27;2.78;;;28.20;1.00;;;;;;5063500;28;20566;-88
2022/05/15 13:44:35;;;;;;;6.95;2.85;;;27.90;1.00;;;;;;5063876;28;20333;-82